createdAt,value
2017-06-13T00:00:43.051Z,15.72
2017-06-13T00:01:52.088Z,15.68
2017-06-13T00:03:01.297Z,15.68
2017-06-13T00:04:10.188Z,15.69
2017-06-13T00:05:19.080Z,15.65
2017-06-13T00:06:27.975Z,15.56
2017-06-13T00:07:37.287Z,15.59
2017-06-13T00:08:46.176Z,15.59
2017-06-13T00:09:55.061Z,15.56
2017-06-13T00:11:04.270Z,15.57
2017-06-13T00:12:13.154Z,15.62
2017-06-13T00:13:22.040Z,15.65
2017-06-13T00:14:31.903Z,15.68
2017-06-13T00:15:41.118Z,15.56
2017-06-13T00:16:50.007Z,15.62
2017-06-13T00:17:59.219Z,15.59
2017-06-13T00:19:08.580Z,15.56
2017-06-13T00:20:17.791Z,15.53
2017-06-13T00:21:26.680Z,15.54
2017-06-13T00:22:35.568Z,15.56
2017-06-13T00:23:44.460Z,15.56
2017-06-13T00:24:53.448Z,15.54
2017-06-13T00:26:02.339Z,15.54
2017-06-13T00:27:11.554Z,15.51
2017-06-13T00:28:20.446Z,15.62
2017-06-13T00:29:29.673Z,15.57
2017-06-13T00:30:38.561Z,15.54
2017-06-13T00:31:47.451Z,15.54
2017-06-13T00:32:56.338Z,15.54
2017-06-13T00:34:05.225Z,15.57
2017-06-13T00:35:14.114Z,15.56
2017-06-13T00:36:23.158Z,15.53
2017-06-13T00:37:32.042Z,15.57
2017-06-13T00:38:41.259Z,15.5
2017-06-13T00:39:50.474Z,15.56
2017-06-13T00:40:59.360Z,15.53
2017-06-13T00:42:08.243Z,15.6
2017-06-13T00:43:17.484Z,15.53
2017-06-13T00:44:26.371Z,15.54
2017-06-13T00:45:35.580Z,15.5
2017-06-13T00:46:44.471Z,15.47
2017-06-13T00:47:53.358Z,15.38
2017-06-13T00:49:02.244Z,15.51
2017-06-13T00:50:11.458Z,15.49
2017-06-13T00:51:20.342Z,15.49
2017-06-13T00:52:29.226Z,15.44
2017-06-13T00:53:38.263Z,15.49
2017-06-13T00:54:47.803Z,15.49
2017-06-13T00:55:57.019Z,15.44
2017-06-13T00:57:05.909Z,15.44
2017-06-13T00:58:15.123Z,15.5
2017-06-13T00:59:24.313Z,15.36
2017-06-13T01:00:33.200Z,15.38
2017-06-13T01:01:42.413Z,15.36
2017-06-13T01:02:51.304Z,15.41
2017-06-13T01:04:00.193Z,15.41
2017-06-13T01:05:09.383Z,15.32
2017-06-13T01:06:18.590Z,15.31
2017-06-13T01:07:27.475Z,15.29
2017-06-13T01:08:36.361Z,15.32
2017-06-13T01:09:45.573Z,15.31
2017-06-13T01:10:54.463Z,15.43
2017-06-13T01:12:03.675Z,15.35
2017-06-13T01:13:12.560Z,15.36
2017-06-13T01:14:21.770Z,15.43
2017-06-13T01:15:30.662Z,15.39
2017-06-13T01:16:39.647Z,15.32
2017-06-13T01:17:48.538Z,15.31
2017-06-13T01:18:57.426Z,15.32
2017-06-13T01:20:06.967Z,15.41
2017-06-13T01:21:16.182Z,15.31
2017-06-13T01:22:26.250Z,15.32
2017-06-13T01:23:35.135Z,15.25
2017-06-13T01:24:44.351Z,15.28
2017-06-13T01:25:53.241Z,15.31
2017-06-13T01:27:02.128Z,15.25
2017-06-13T01:28:11.186Z,15.29
2017-06-13T01:29:20.410Z,15.23
2017-06-13T01:30:29.297Z,15.31
2017-06-13T01:31:38.190Z,15.35
2017-06-13T01:32:47.082Z,15.28
2017-06-13T01:33:56.594Z,15.23
2017-06-13T01:35:05.480Z,15.27
2017-06-13T01:36:14.365Z,15.23
2017-06-13T01:37:23.905Z,15.28
2017-06-13T01:38:32.790Z,15.23
2017-06-13T01:39:41.830Z,15.28
2017-06-13T01:40:50.718Z,15.28
2017-06-13T01:41:59.929Z,15.28
2017-06-13T01:43:09.145Z,15.28
2017-06-13T01:44:18.034Z,15.32
2017-06-13T01:45:27.070Z,15.27
2017-06-13T01:46:36.282Z,15.32
2017-06-13T01:47:45.170Z,15.29
2017-06-13T01:48:54.387Z,15.27
2017-06-13T01:50:03.600Z,15.31
2017-06-13T01:51:12.588Z,15.2
2017-06-13T01:52:21.477Z,15.34
2017-06-13T01:53:30.367Z,15.23
2017-06-13T01:54:39.584Z,15.23
2017-06-13T01:55:48.793Z,15.27
2017-06-13T01:56:58.381Z,15.25
2017-06-13T01:58:07.271Z,15.28
2017-06-13T01:59:16.161Z,15.21
2017-06-13T02:00:25.056Z,15.27
2017-06-13T02:01:34.270Z,15.23
2017-06-13T02:02:44.107Z,15.27
2017-06-13T02:03:53.317Z,15.31
2017-06-13T02:05:02.528Z,15.23
2017-06-13T02:06:11.741Z,15.25
2017-06-13T02:07:20.953Z,15.27
2017-06-13T02:08:29.940Z,15.21
2017-06-13T02:09:39.157Z,15.29
2017-06-13T02:10:48.370Z,15.28
2017-06-13T02:11:57.261Z,15.28
2017-06-13T02:13:06.794Z,15.31
2017-06-13T02:14:15.832Z,15.28
2017-06-13T02:15:24.716Z,15.25
2017-06-13T02:16:33.929Z,15.21
2017-06-13T02:17:42.821Z,15.25
2017-06-13T02:18:51.713Z,15.19
2017-06-13T02:20:00.752Z,15.29
2017-06-13T02:21:09.965Z,15.2
2017-06-13T02:22:18.851Z,15.2
2017-06-13T02:23:27.739Z,15.19
2017-06-13T02:24:36.958Z,15.1
2017-06-13T02:25:46.230Z,15.14
2017-06-13T02:26:55.118Z,15.13
2017-06-13T02:28:04.007Z,15.21
2017-06-13T02:29:12.893Z,15.29
2017-06-13T02:30:21.782Z,15.11
2017-06-13T02:31:30.820Z,15.17
2017-06-13T02:32:39.704Z,15.14
2017-06-13T02:33:48.593Z,15.1
2017-06-13T02:34:57.477Z,15.13
2017-06-13T02:36:06.689Z,15.14
2017-06-13T02:37:15.829Z,15.13
2017-06-13T02:38:24.717Z,15.16
2017-06-13T02:39:33.603Z,15.1
2017-06-13T02:40:42.818Z,15.13
2017-06-13T02:41:52.023Z,15.07
2017-06-13T02:43:01.286Z,15.09
2017-06-13T02:44:10.175Z,15.03
2017-06-13T02:45:19.103Z,15.11
2017-06-13T02:46:27.995Z,15.07
2017-06-13T02:47:36.931Z,15.03
2017-06-13T02:48:46.195Z,14.96
2017-06-13T02:49:55.407Z,14.94
2017-06-13T02:51:04.621Z,14.99
2017-06-13T02:52:14.160Z,14.94
2017-06-13T02:53:23.370Z,15.13
2017-06-13T02:54:32.683Z,14.96
2017-06-13T02:55:41.897Z,14.88
2017-06-13T02:56:50.785Z,14.95
2017-06-13T02:57:59.675Z,14.92
2017-06-13T02:59:08.563Z,15.01
2017-06-13T03:00:17.452Z,14.96
2017-06-13T03:01:26.342Z,14.86
2017-06-13T03:02:35.231Z,14.84
2017-06-13T03:03:44.117Z,14.73
2017-06-13T03:04:53.010Z,14.7
2017-06-13T03:06:02.372Z,14.72
2017-06-13T03:07:11.587Z,14.61
2017-06-13T03:08:20.476Z,14.62
2017-06-13T03:09:29.705Z,14.73
2017-06-13T03:10:38.590Z,14.65
2017-06-13T03:11:47.949Z,14.57
2017-06-13T03:12:57.163Z,14.55
2017-06-13T03:14:06.374Z,14.57
2017-06-13T03:15:15.263Z,14.5
2017-06-13T03:16:24.153Z,14.46
2017-06-13T03:17:33.517Z,14.5
2017-06-13T03:18:42.730Z,14.32
2017-06-13T03:19:51.619Z,14.36
2017-06-13T03:21:00.833Z,14.37
2017-06-13T03:22:09.722Z,14.42
2017-06-13T03:23:18.757Z,14.47
2017-06-13T03:24:27.979Z,14.39
2017-06-13T03:25:37.191Z,14.5
2017-06-13T03:26:46.404Z,14.27
2017-06-13T03:27:55.612Z,14.32
2017-06-13T03:29:04.597Z,14.32
2017-06-13T03:30:13.485Z,14.29
2017-06-13T03:31:22.373Z,14.29
2017-06-13T03:32:31.934Z,14.32
2017-06-13T03:33:40.819Z,14.29
2017-06-13T03:34:50.185Z,14.33
2017-06-13T03:35:59.392Z,14.32
2017-06-13T03:37:08.276Z,14.29
2017-06-13T03:38:17.487Z,14.25
2017-06-13T03:39:26.381Z,14.28
2017-06-13T03:40:35.591Z,14.29
2017-06-13T03:41:45.131Z,14.24
2017-06-13T03:42:54.344Z,14.27
2017-06-13T03:44:04.206Z,14.22
2017-06-13T03:45:13.096Z,14.32
2017-06-13T03:46:21.984Z,14.18
2017-06-13T03:47:31.201Z,14.15
2017-06-13T03:48:40.414Z,14.17
2017-06-13T03:49:49.623Z,14.17
2017-06-13T03:50:58.830Z,14.21
2017-06-13T03:52:07.714Z,14.14
2017-06-13T03:53:16.599Z,14.1
2017-06-13T03:54:25.484Z,14.18
2017-06-13T03:55:34.368Z,14.14
2017-06-13T03:56:43.253Z,14.17
2017-06-13T03:57:52.616Z,14.24
2017-06-13T03:59:01.503Z,14.17
2017-06-13T04:00:10.392Z,14.21
2017-06-13T04:01:19.926Z,14.15
2017-06-13T04:02:28.815Z,14.24
2017-06-13T04:03:37.801Z,14.28
2017-06-13T04:04:46.687Z,14.18
2017-06-13T04:05:55.573Z,14.18
2017-06-13T04:07:04.789Z,14.18
2017-06-13T04:08:14.010Z,14.2
2017-06-13T04:09:23.000Z,14.17
2017-06-13T04:10:32.210Z,14.22
2017-06-13T04:11:41.098Z,14.22
2017-06-13T04:12:49.992Z,14.25
2017-06-13T04:13:59.206Z,14.25
2017-06-13T04:15:08.395Z,14.24
2017-06-13T04:16:17.282Z,14.28
2017-06-13T04:17:26.176Z,14.29
2017-06-13T04:18:35.715Z,14.36
2017-06-13T04:19:44.603Z,14.28
2017-06-13T04:20:53.488Z,14.39
2017-06-13T04:22:02.377Z,14.32
2017-06-13T04:23:11.266Z,14.33
2017-06-13T04:24:20.146Z,14.28
2017-06-13T04:25:29.032Z,14.37
2017-06-13T04:26:38.021Z,14.33
2017-06-13T04:27:46.909Z,14.37
2017-06-13T04:28:55.793Z,14.4
2017-06-13T04:30:05.004Z,14.5
2017-06-13T04:31:14.218Z,14.46
2017-06-13T04:32:23.429Z,14.46
2017-06-13T04:33:32.315Z,14.57
2017-06-13T04:34:41.526Z,14.55
2017-06-13T04:35:50.743Z,14.47
2017-06-13T04:36:59.952Z,14.55
2017-06-13T04:38:09.164Z,14.57
2017-06-13T04:39:18.051Z,14.6
2017-06-13T04:40:27.269Z,14.55
2017-06-13T04:41:36.157Z,14.58
2017-06-13T04:42:45.044Z,14.65
2017-06-13T04:43:54.081Z,14.68
2017-06-13T04:45:02.969Z,14.64
2017-06-13T04:46:11.854Z,14.6
2017-06-13T04:47:20.743Z,14.7
2017-06-13T04:48:29.955Z,14.64
2017-06-13T04:49:39.316Z,14.69
2017-06-13T04:50:48.527Z,14.72
2017-06-13T04:51:58.065Z,14.75
2017-06-13T04:53:07.273Z,14.8
2017-06-13T04:54:16.521Z,14.75
2017-06-13T04:55:25.403Z,14.83
2017-06-13T04:56:34.290Z,14.8
2017-06-13T04:57:43.508Z,14.86
2017-06-13T04:58:52.395Z,14.88
2017-06-13T05:00:01.282Z,14.81
2017-06-13T05:01:10.327Z,14.92
2017-06-13T05:02:19.865Z,14.89
2017-06-13T05:03:28.755Z,14.83
2017-06-13T05:04:37.647Z,14.84
2017-06-13T05:05:46.858Z,14.96
2017-06-13T05:06:56.045Z,14.99
2017-06-13T05:08:05.257Z,15.09
2017-06-13T05:09:14.141Z,15.06
2017-06-13T05:10:23.033Z,15.02
2017-06-13T05:11:32.246Z,15.14
2017-06-13T05:12:41.234Z,15.09
2017-06-13T05:13:50.122Z,15.13
2017-06-13T05:14:59.664Z,15.23
2017-06-13T05:16:08.877Z,15.27
2017-06-13T05:17:17.763Z,15.28
2017-06-13T05:18:26.951Z,15.27
2017-06-13T05:19:36.489Z,15.28
2017-06-13T05:20:45.703Z,15.17
2017-06-13T05:21:55.241Z,15.31
2017-06-13T05:23:04.451Z,15.21
2017-06-13T05:24:13.493Z,15.35
2017-06-13T05:25:22.382Z,15.51
2017-06-13T05:26:31.271Z,15.51
2017-06-13T05:27:40.159Z,15.59
2017-06-13T05:28:49.052Z,15.68
2017-06-13T05:29:58.313Z,15.64
2017-06-13T05:31:07.200Z,15.75
2017-06-13T05:32:16.411Z,15.83
2017-06-13T05:33:25.621Z,15.83
2017-06-13T05:34:34.511Z,15.89
2017-06-13T05:35:43.448Z,15.8
2017-06-13T05:36:52.983Z,15.86
2017-06-13T05:38:02.200Z,15.93
2017-06-13T05:39:11.415Z,15.96
2017-06-13T05:40:20.302Z,15.96
2017-06-13T05:41:29.345Z,15.9
2017-06-13T05:42:38.232Z,15.9
2017-06-13T05:43:47.126Z,15.86
2017-06-13T05:44:56.341Z,15.87
2017-06-13T05:46:05.231Z,15.84
2017-06-13T05:47:14.273Z,16
2017-06-13T05:48:23.163Z,15.94
2017-06-13T05:49:32.374Z,15.94
2017-06-13T05:50:41.265Z,15.97
2017-06-13T05:51:50.154Z,16.02
2017-06-13T05:52:59.195Z,16.01
2017-06-13T05:54:08.738Z,16.02
2017-06-13T05:55:17.951Z,16.02
2017-06-13T05:56:26.842Z,16.05
2017-06-13T05:57:36.063Z,16.08
2017-06-13T05:58:45.325Z,16.07
2017-06-13T05:59:54.214Z,16.12
2017-06-13T06:01:03.769Z,16.01
2017-06-13T06:02:12.982Z,16.01
2017-06-13T06:03:21.873Z,16.01
2017-06-13T06:04:31.086Z,16.02
2017-06-13T06:05:39.969Z,15.97
2017-06-13T06:06:49.505Z,16.04
2017-06-13T06:07:58.721Z,16.01
2017-06-13T06:09:07.932Z,16.11
2017-06-13T06:10:16.826Z,16.17
2017-06-13T06:11:26.050Z,16.15
2017-06-13T06:12:35.157Z,16.17
2017-06-13T06:13:44.082Z,16.27
2017-06-13T06:14:52.973Z,16.24
2017-06-13T06:16:01.861Z,16.24
2017-06-13T06:17:10.747Z,16.17
2017-06-13T06:18:19.634Z,16.23
2017-06-13T06:19:28.524Z,16.28
2017-06-13T06:20:38.213Z,16.3
2017-06-13T06:21:47.102Z,16.28
2017-06-13T06:22:56.320Z,16.28
2017-06-13T06:24:05.544Z,16.33
2017-06-13T06:25:14.435Z,16.31
2017-06-13T06:26:23.575Z,16.24
2017-06-13T06:27:32.464Z,16.31
2017-06-13T06:28:41.355Z,16.31
2017-06-13T06:29:50.590Z,16.31
2017-06-13T06:30:59.479Z,16.33
2017-06-13T06:32:08.470Z,16.34
2017-06-13T06:33:17.361Z,16.34
2017-06-13T06:34:26.905Z,16.33
2017-06-13T06:35:36.114Z,16.34
2017-06-13T06:36:45.005Z,16.33
2017-06-13T06:37:54.642Z,16.38
2017-06-13T06:39:03.566Z,16.35
2017-06-13T06:40:12.462Z,16.35
2017-06-13T06:41:21.351Z,16.38
2017-06-13T06:42:30.272Z,16.35
2017-06-13T06:43:39.364Z,16.41
2017-06-13T06:44:48.254Z,16.41
2017-06-13T06:45:57.150Z,16.42
2017-06-13T06:47:07.019Z,16.5
2017-06-13T06:48:15.910Z,16.48
2017-06-13T06:49:25.177Z,16.46
2017-06-13T06:50:34.066Z,16.41
2017-06-13T06:51:42.955Z,16.34
2017-06-13T06:52:51.845Z,16.39
2017-06-13T06:54:00.734Z,16.5
2017-06-13T06:55:09.625Z,16.45
2017-06-13T06:56:18.519Z,16.42
2017-06-13T06:57:27.413Z,16.48
2017-06-13T06:58:36.310Z,16.63
2017-06-13T06:59:45.525Z,16.5
2017-06-13T07:00:54.666Z,16.57
2017-06-13T07:02:03.559Z,16.42
2017-06-13T07:03:12.774Z,16.61
2017-06-13T07:04:21.667Z,16.61
2017-06-13T07:05:30.562Z,16.57
2017-06-13T07:06:40.403Z,16.58
2017-06-13T07:07:49.294Z,16.64
2017-06-13T07:08:58.186Z,16.53
2017-06-13T07:10:07.407Z,16.57
2017-06-13T07:11:16.623Z,16.61
2017-06-13T07:12:26.019Z,16.64
2017-06-13T07:13:34.918Z,16.7
2017-06-13T07:14:43.811Z,16.73
2017-06-13T07:15:52.708Z,16.75
2017-06-13T07:17:01.599Z,16.7
2017-06-13T07:18:10.543Z,16.7
2017-06-13T07:19:19.757Z,16.53
2017-06-13T07:20:28.968Z,16.52
2017-06-13T07:21:37.910Z,16.64
2017-06-13T07:22:46.796Z,16.67
2017-06-13T07:23:55.788Z,16.71
2017-06-13T07:25:04.675Z,16.73
2017-06-13T07:26:13.891Z,16.76
2017-06-13T07:27:22.779Z,16.66
2017-06-13T07:28:31.999Z,16.67
2017-06-13T07:29:40.995Z,16.71
2017-06-13T07:30:49.888Z,16.71
2017-06-13T07:31:58.775Z,16.81
2017-06-13T07:33:07.668Z,16.76
2017-06-13T07:34:16.563Z,16.78
2017-06-13T07:35:25.606Z,16.89
2017-06-13T07:36:34.497Z,16.91
2017-06-13T07:37:43.386Z,16.94
2017-06-13T07:38:52.273Z,16.91
2017-06-13T07:40:01.488Z,17.08
2017-06-13T07:41:10.477Z,17.06
2017-06-13T07:42:19.701Z,17.06
2017-06-13T07:43:28.595Z,17.04
2017-06-13T07:44:37.486Z,17.07
2017-06-13T07:45:46.700Z,17.14
2017-06-13T07:46:55.750Z,17.19
2017-06-13T07:48:04.965Z,17.19
2017-06-13T07:49:14.187Z,17.19
2017-06-13T07:50:23.082Z,17.25
2017-06-13T07:51:31.973Z,17.18
2017-06-13T07:52:41.010Z,17.3
2017-06-13T07:53:50.556Z,17.33
2017-06-13T07:54:59.448Z,17.3
2017-06-13T07:56:08.662Z,17.49
2017-06-13T07:57:17.553Z,17.56
2017-06-13T07:58:27.018Z,17.49
2017-06-13T07:59:36.559Z,17.68
2017-06-13T08:00:45.455Z,17.63
2017-06-13T08:01:54.345Z,17.7
2017-06-13T08:03:03.235Z,17.66
2017-06-13T08:04:12.128Z,17.7
2017-06-13T08:05:21.019Z,17.68
2017-06-13T08:06:29.912Z,17.71
2017-06-13T08:07:39.131Z,17.84
2017-06-13T08:08:48.343Z,17.9
2017-06-13T08:09:57.762Z,17.87
2017-06-13T08:11:06.980Z,17.95
2017-06-13T08:12:16.193Z,17.95
2017-06-13T08:13:25.087Z,17.92
2017-06-13T08:14:33.980Z,17.84
2017-06-13T08:15:42.872Z,17.9
2017-06-13T08:16:52.752Z,17.95
2017-06-13T08:18:01.971Z,17.66
2017-06-13T08:19:10.866Z,17.58
2017-06-13T08:20:20.087Z,17.59
2017-06-13T08:21:29.378Z,17.62
2017-06-13T08:22:38.268Z,17.64
2017-06-13T08:23:47.161Z,17.71
2017-06-13T08:24:56.053Z,17.63
2017-06-13T08:26:04.944Z,17.71
2017-06-13T08:27:13.984Z,17.75
2017-06-13T08:28:22.880Z,17.78
2017-06-13T08:29:31.779Z,17.86
2017-06-13T08:30:40.993Z,17.89
2017-06-13T08:31:49.881Z,17.96
2017-06-13T08:32:59.248Z,17.95
2017-06-13T08:34:08.471Z,17.75
2017-06-13T08:35:17.361Z,17.72
2017-06-13T08:36:26.574Z,17.81
2017-06-13T08:37:35.793Z,17.77
2017-06-13T08:38:44.791Z,17.63
2017-06-13T08:39:53.681Z,17.64
2017-06-13T08:41:02.572Z,17.56
2017-06-13T08:42:11.464Z,17.55
2017-06-13T08:43:20.358Z,17.59
2017-06-13T08:44:29.775Z,17.75
2017-06-13T08:45:38.666Z,17.78
2017-06-13T08:46:47.559Z,17.87
2017-06-13T08:47:56.456Z,18
2017-06-13T08:49:05.347Z,17.99
2017-06-13T08:50:14.391Z,18.03
2017-06-13T08:51:23.286Z,18
2017-06-13T08:52:32.178Z,18.03
2017-06-13T08:53:41.392Z,18.18
2017-06-13T08:54:50.282Z,18.1
2017-06-13T08:55:59.423Z,18.26
2017-06-13T08:57:08.647Z,18.26
2017-06-13T08:58:17.871Z,18.29
2017-06-13T08:59:26.761Z,18.42
2017-06-13T09:00:35.980Z,18.44
2017-06-13T09:01:45.024Z,18.44
2017-06-13T09:02:53.916Z,18.44
2017-06-13T09:04:02.806Z,18.48
2017-06-13T09:05:11.701Z,18.57
2017-06-13T09:06:20.593Z,18.47
2017-06-13T09:07:29.631Z,18.45
2017-06-13T09:08:38.851Z,18.36
2017-06-13T09:09:48.092Z,18.26
2017-06-13T09:10:57.305Z,17.97
2017-06-13T09:12:06.197Z,18
2017-06-13T09:13:15.289Z,17.99
2017-06-13T09:14:24.181Z,17.93
2017-06-13T09:15:33.074Z,17.97
2017-06-13T09:16:41.967Z,17.89
2017-06-13T09:17:51.509Z,17.87
2017-06-13T09:19:00.499Z,17.89
2017-06-13T09:20:09.387Z,17.75
2017-06-13T09:21:18.608Z,17.79
2017-06-13T09:22:27.504Z,17.84
2017-06-13T09:23:36.393Z,17.93
2017-06-13T09:24:45.384Z,17.82
2017-06-13T09:25:54.603Z,17.87
2017-06-13T09:27:03.825Z,17.93
2017-06-13T09:28:12.716Z,17.97
2017-06-13T09:29:21.614Z,17.92
2017-06-13T09:30:31.079Z,17.93
2017-06-13T09:31:40.294Z,18.07
2017-06-13T09:32:49.837Z,18.1
2017-06-13T09:33:58.734Z,18.11
2017-06-13T09:35:07.947Z,18.15
2017-06-13T09:36:17.090Z,18.17
2017-06-13T09:37:25.980Z,18.23
2017-06-13T09:38:35.195Z,18.29
2017-06-13T09:39:44.088Z,18.32
2017-06-13T09:40:52.982Z,18.32
2017-06-13T09:42:01.875Z,18.36
2017-06-13T09:43:11.418Z,18.26
2017-06-13T09:44:20.309Z,18.32
2017-06-13T09:45:29.200Z,18.35
2017-06-13T09:46:38.092Z,18.47
2017-06-13T09:47:47.289Z,18.39
2017-06-13T09:48:56.507Z,18.3
2017-06-13T09:50:05.395Z,18.23
2017-06-13T09:51:14.290Z,18.27
2017-06-13T09:52:23.508Z,18.15
2017-06-13T09:53:32.649Z,18.12
2017-06-13T09:54:41.543Z,18.12
2017-06-13T09:55:50.431Z,18.14
2017-06-13T09:56:59.323Z,18.35
2017-06-13T09:58:08.537Z,18.33
2017-06-13T09:59:17.477Z,18.27
2017-06-13T10:00:26.382Z,18.36
2017-06-13T10:01:35.276Z,18.37
2017-06-13T10:02:44.821Z,18.45
2017-06-13T10:03:53.713Z,18.41
2017-06-13T10:05:02.760Z,18.48
2017-06-13T10:06:11.657Z,18.57
2017-06-13T10:07:20.557Z,18.62
2017-06-13T10:08:29.449Z,18.75
2017-06-13T10:09:38.668Z,18.69
2017-06-13T10:10:47.814Z,18.62
2017-06-13T10:11:56.712Z,18.69
2017-06-13T10:13:05.608Z,18.85
2017-06-13T10:14:14.503Z,18.78
2017-06-13T10:15:23.395Z,18.75
2017-06-13T10:16:32.442Z,18.84
2017-06-13T10:17:41.335Z,18.84
2017-06-13T10:18:50.558Z,18.82
2017-06-13T10:19:59.451Z,18.88
2017-06-13T10:21:08.993Z,18.84
2017-06-13T10:22:18.258Z,18.98
2017-06-13T10:23:27.153Z,19
2017-06-13T10:24:36.695Z,19
2017-06-13T10:25:46.236Z,19.08
2017-06-13T10:26:55.778Z,19.28
2017-06-13T10:28:04.719Z,19.26
2017-06-13T10:29:13.607Z,19.08
2017-06-13T10:30:22.499Z,19.08
2017-06-13T10:31:31.719Z,19.16
2017-06-13T10:32:40.615Z,19.19
2017-06-13T10:33:49.657Z,19.21
2017-06-13T10:34:58.551Z,19.21
2017-06-13T10:36:07.448Z,19.28
2017-06-13T10:37:16.349Z,19.32
2017-06-13T10:38:25.246Z,19.18
2017-06-13T10:39:34.294Z,19.21
2017-06-13T10:40:43.187Z,19.1
2017-06-13T10:41:52.408Z,18.94
2017-06-13T10:43:01.948Z,19.07
2017-06-13T10:44:11.167Z,18.99
2017-06-13T10:45:20.161Z,18.99
2017-06-13T10:46:29.053Z,18.92
2017-06-13T10:47:38.271Z,18.87
2017-06-13T10:48:47.167Z,19.08
2017-06-13T10:49:56.059Z,19.18
2017-06-13T10:51:05.051Z,19.19
2017-06-13T10:52:13.944Z,19.31
2017-06-13T10:53:22.834Z,19.28
2017-06-13T10:54:31.731Z,19.16
2017-06-13T10:55:40.621Z,19.16
2017-06-13T10:56:50.161Z,19.23
2017-06-13T10:57:59.059Z,19.22
2017-06-13T10:59:07.951Z,19.29
2017-06-13T11:00:17.168Z,19.41
2017-06-13T11:01:26.388Z,19.18
2017-06-13T11:02:35.858Z,19.16
2017-06-13T11:03:44.752Z,19.21
2017-06-13T11:04:53.971Z,19.21
2017-06-13T11:06:02.913Z,19.37
2017-06-13T11:07:11.809Z,19.4
2017-06-13T11:08:20.854Z,19.41
2017-06-13T11:09:30.073Z,19.28
2017-06-13T11:10:39.615Z,19.07
2017-06-13T11:11:48.835Z,18.95
2017-06-13T11:12:57.726Z,18.95
2017-06-13T11:14:06.672Z,18.98
2017-06-13T11:15:15.569Z,19.19
2017-06-13T11:16:24.459Z,19.25
2017-06-13T11:17:33.351Z,19.33
2017-06-13T11:18:42.301Z,19.13
2017-06-13T11:19:51.293Z,18.95
2017-06-13T11:21:00.187Z,19.22
2017-06-13T11:22:09.083Z,19.14
2017-06-13T11:23:17.978Z,19.13
2017-06-13T11:24:26.871Z,19.21
2017-06-13T11:25:36.064Z,19.33
2017-06-13T11:26:45.297Z,19.44
2017-06-13T11:27:54.187Z,19.69
2017-06-13T11:29:03.079Z,19.96
2017-06-13T11:30:12.299Z,20.05
2017-06-13T11:31:21.498Z,20.1
2017-06-13T11:32:30.715Z,20.1
2017-06-13T11:33:39.612Z,20.14
2017-06-13T11:34:48.506Z,20.2
2017-06-13T11:35:58.053Z,20.28
2017-06-13T11:37:07.101Z,20.08
2017-06-13T11:38:16.322Z,20.13
2017-06-13T11:39:25.219Z,20.06
2017-06-13T11:40:34.440Z,20.16
2017-06-13T11:41:43.332Z,20.21
2017-06-13T11:42:52.611Z,20.33
2017-06-13T11:44:01.508Z,20.03
2017-06-13T11:45:10.404Z,20.05
2017-06-13T11:46:19.625Z,20.11
2017-06-13T11:47:28.534Z,20.13
2017-06-13T11:48:37.792Z,20.21
2017-06-13T11:49:46.687Z,20.24
2017-06-13T11:50:55.583Z,20.17
2017-06-13T11:52:04.478Z,20.31
2017-06-13T11:53:13.705Z,20.21
2017-06-13T11:54:22.973Z,20.33
2017-06-13T11:55:32.195Z,20.33
2017-06-13T11:56:41.088Z,20.33
2017-06-13T11:57:49.986Z,20.33
2017-06-13T11:58:58.883Z,20.31
2017-06-13T12:00:07.778Z,20.33
2017-06-13T12:01:17.000Z,20.23
2017-06-13T12:02:25.894Z,20.29
2017-06-13T12:03:35.113Z,20.33
2017-06-13T12:04:44.333Z,20.39
2017-06-13T12:05:53.978Z,20.28
2017-06-13T12:07:03.195Z,20.06
2017-06-13T12:08:12.091Z,20.05
2017-06-13T12:09:21.314Z,20.13
2017-06-13T12:10:30.207Z,20.24
2017-06-13T12:11:39.804Z,20.26
2017-06-13T12:12:48.700Z,20.08
2017-06-13T12:13:57.599Z,20.08
2017-06-13T12:15:06.828Z,19.99
2017-06-13T12:16:15.721Z,20.05
2017-06-13T12:17:25.315Z,19.86
2017-06-13T12:18:34.860Z,19.8
2017-06-13T12:19:43.836Z,19.74
2017-06-13T12:20:53.113Z,19.68
2017-06-13T12:22:02.004Z,19.71
2017-06-13T12:23:11.542Z,19.71
2017-06-13T12:24:20.472Z,19.71
2017-06-13T12:25:29.367Z,19.68
2017-06-13T12:26:38.259Z,19.62
2017-06-13T12:27:47.515Z,19.54
2017-06-13T12:28:56.781Z,19.54
2017-06-13T12:30:05.675Z,19.48
2017-06-13T12:31:14.581Z,19.47
2017-06-13T12:32:23.482Z,19.46
2017-06-13T12:33:32.386Z,19.62
2017-06-13T12:34:41.682Z,19.58
2017-06-13T12:35:50.682Z,19.77
2017-06-13T12:36:59.604Z,19.86
2017-06-13T12:38:08.825Z,19.83
2017-06-13T12:39:18.060Z,19.86
2017-06-13T12:40:27.141Z,19.77
2017-06-13T12:41:36.069Z,19.76
2017-06-13T12:42:44.963Z,19.71
2017-06-13T12:43:54.193Z,19.62
2017-06-13T12:45:03.101Z,19.81
2017-06-13T12:46:12.445Z,19.71
2017-06-13T12:47:21.341Z,19.69
2017-06-13T12:48:30.236Z,19.48
2017-06-13T12:49:39.463Z,19.61
2017-06-13T12:50:49.004Z,19.56
2017-06-13T12:51:58.002Z,19.59
2017-06-13T12:53:06.916Z,19.61
2017-06-13T12:54:15.811Z,19.63
2017-06-13T12:55:25.042Z,19.62
2017-06-13T12:56:34.013Z,19.69
2017-06-13T12:57:43.423Z,19.71
2017-06-13T12:58:52.316Z,19.69
2017-06-13T13:00:01.217Z,19.77
2017-06-13T13:01:10.448Z,19.74
2017-06-13T13:02:19.342Z,19.87
2017-06-13T13:03:28.363Z,19.95
2017-06-13T13:04:37.591Z,19.92
2017-06-13T13:05:47.142Z,20.08
2017-06-13T13:06:56.038Z,20.31
2017-06-13T13:08:04.930Z,20.64
2017-06-13T13:09:14.125Z,20.79
2017-06-13T13:10:23.347Z,20.94
2017-06-13T13:11:32.247Z,21.25
2017-06-13T13:12:41.469Z,21.38
2017-06-13T13:13:50.734Z,21.34
2017-06-13T13:15:00.112Z,21.25
2017-06-13T13:16:09.029Z,21.19
2017-06-13T13:17:17.929Z,21.01
2017-06-13T13:18:27.060Z,20.88
2017-06-13T13:19:36.030Z,20.84
2017-06-13T13:20:45.109Z,20.82
2017-06-13T13:21:54.018Z,20.88
2017-06-13T13:23:02.921Z,20.97
2017-06-13T13:24:11.843Z,20.84
2017-06-13T13:25:20.740Z,21.06
2017-06-13T13:26:29.793Z,21.01
2017-06-13T13:27:38.691Z,20.91
2017-06-13T13:28:47.593Z,20.91
2017-06-13T13:29:56.818Z,20.91
2017-06-13T13:31:05.720Z,20.97
2017-06-13T13:32:15.094Z,20.95
2017-06-13T13:33:23.989Z,21.12
2017-06-13T13:34:32.885Z,21.17
2017-06-13T13:35:42.104Z,21.21
2017-06-13T13:36:51.002Z,21.4
2017-06-13T13:38:00.378Z,21.61
2017-06-13T13:39:09.601Z,21.65
2017-06-13T13:40:18.499Z,21.67
2017-06-13T13:41:28.054Z,21.67
2017-06-13T13:42:36.953Z,21.65
2017-06-13T13:43:45.848Z,21.62
2017-06-13T13:44:55.074Z,21.68
2017-06-13T13:46:04.304Z,21.54
2017-06-13T13:47:13.206Z,21.42
2017-06-13T13:48:22.110Z,21.42
2017-06-13T13:49:31.012Z,21.62
2017-06-13T13:50:39.911Z,21.53
2017-06-13T13:51:49.135Z,21.58
2017-06-13T13:52:58.361Z,21.32
2017-06-13T13:54:07.585Z,21.07
2017-06-13T13:55:16.484Z,21.28
2017-06-13T13:56:25.404Z,20.92
2017-06-13T13:57:34.301Z,21.04
2017-06-13T13:58:43.247Z,20.92
2017-06-13T13:59:52.144Z,20.74
2017-06-13T14:01:01.064Z,20.58
2017-06-13T14:02:09.968Z,20.5
2017-06-13T14:03:19.200Z,20.66
2017-06-13T14:04:28.100Z,20.74
2017-06-13T14:05:37.034Z,20.73
2017-06-13T14:06:45.931Z,20.84
2017-06-13T14:07:55.180Z,20.98
2017-06-13T14:09:12.553Z,21.01
2017-06-13T14:10:22.104Z,20.79
2017-06-13T14:11:31.128Z,20.84
2017-06-13T14:12:40.087Z,21.06
2017-06-13T14:13:48.998Z,21.14
2017-06-13T14:14:58.744Z,21.21
2017-06-13T14:16:07.642Z,21.27
2017-06-13T14:17:16.537Z,21.24
2017-06-13T14:18:25.438Z,20.98
2017-06-13T14:19:34.667Z,21.01
2017-06-13T14:20:43.569Z,21.13
2017-06-13T14:21:52.484Z,21.07
2017-06-13T14:23:01.728Z,21.09
2017-06-13T14:24:10.646Z,21.09
2017-06-13T14:25:19.550Z,21.14
2017-06-13T14:26:28.927Z,21.37
2017-06-13T14:27:38.151Z,21.75
2017-06-13T14:28:47.386Z,21.9
2017-06-13T14:29:56.938Z,22.03
2017-06-13T14:31:06.168Z,22.33
2017-06-13T14:32:15.650Z,22.52
2017-06-13T14:33:24.552Z,22.77
2017-06-13T14:34:33.462Z,22.98
2017-06-13T14:35:43.340Z,23.13
2017-06-13T14:36:52.244Z,23.12
2017-06-13T14:38:01.397Z,23
2017-06-13T14:39:10.644Z,22.97
2017-06-13T14:40:19.551Z,22.86
2017-06-13T14:41:28.465Z,22.72
2017-06-13T14:42:37.368Z,22.64
2017-06-13T14:43:46.421Z,22.61
2017-06-13T14:44:55.324Z,22.39
2017-06-13T14:46:04.227Z,22.18
2017-06-13T14:47:13.126Z,22.28
2017-06-13T14:48:22.355Z,22.64
2017-06-13T14:49:31.261Z,23.09
2017-06-13T14:50:40.494Z,23.2
2017-06-13T14:51:49.725Z,23.38
2017-06-13T14:52:58.950Z,23.02